Time,TemperatureF,DewpointF,PressureIn,WindDirection,WindDirectionDegrees,WindSpeedMPH,WindSpeedGustMPH,Humidity,HourlyPrecipIn,Conditions,Clouds,dailyrainin,SoftwareType,DateUTC
2013-05-12 00:12:00,64.0,63.0,29.83,SE,136,0.0,1.0,95,0.00,,,0.00,weatherlink.com 1.10,2013-05-12 04:12:00,
2013-05-12 00:27:00,63.9,63.0,29.82,SE,134,0.0,1.0,96,0.00,,,0.00,weatherlink.com 1.10,2013-05-12 04:27:00,
2013-05-12 00:42:00,63.9,63.0,29.82,SE,134,0.0,1.0,96,0.00,,,0.00,weatherlink.com 1.10,2013-05-12 04:42:00,
2013-05-12 00:57:00,63.8,63.0,29.82,SE,134,0.0,0.0,96,0.00,,,0.00,weatherlink.com 1.10,2013-05-12 04:57:00,
2013-05-12 01:12:00,63.7,63.0,29.82,SE,134,0.0,1.0,96,0.00,,,0.00,weatherlink.com 1.10,2013-05-12 05:12:00,
2013-05-12 01:27:00,63.7,63.0,29.81,SE,134,0.0,1.0,96,0.00,,,0.00,weatherlink.com 1.10,2013-05-12 05:27:00,
2013-05-12 01:42:00,63.6,63.0,29.82,SE,134,0.0,0.0,96,0.00,,,0.00,weatherlink.com 1.10,2013-05-12 05:42:00,
2013-05-12 01:57:00,63.4,62.0,29.82,SE,134,0.0,0.0,96,0.00,,,0.00,weatherlink.com 1.10,2013-05-12 05:57:00,
2013-05-12 02:12:00,63.2,62.0,29.82,SE,134,0.0,1.0,96,0.00,,,0.00,weatherlink.com 1.10,2013-05-12 06:12:00,
2013-05-12 02:27:00,62.9,62.0,29.81,SE,134,1.0,2.0,96,0.00,,,0.00,weatherlink.com 1.10,2013-05-12 06:27:00,
2013-05-12 02:42:00,62.6,62.0,29.81,WSW,250,0.0,3.0,96,0.00,,,0.00,weatherlink.com 1.10,2013-05-12 06:42:00,
2013-05-12 02:57:00,62.5,61.0,29.81,WSW,251,0.0,2.0,96,0.00,,,0.00,weatherlink.com 1.10,2013-05-12 06:57:00,
2013-05-12 03:12:00,62.3,61.0,29.80,WSW,251,0.0,1.0,96,0.00,,,0.00,weatherlink.com 1.10,2013-05-12 07:12:00,
2013-05-12 03:27:00,62.2,61.0,29.80,WSW,251,0.0,0.0,96,0.00,,,0.00,weatherlink.com 1.10,2013-05-12 07:27:00,
2013-05-12 03:42:00,62.2,61.0,29.82,WSW,251,0.0,1.0,97,0.00,,,0.00,weatherlink.com 1.10,2013-05-12 07:42:00,
2013-05-12 03:57:00,62.1,61.0,29.81,WSW,251,0.0,2.0,97,0.00,,,0.00,weatherlink.com 1.10,2013-05-12 07:57:00,
2013-05-12 04:12:00,62.0,61.0,29.81,WSW,251,0.0,1.0,97,0.00,,,0.00,weatherlink.com 1.10,2013-05-12 08:12:00,
2013-05-12 04:27:00,61.8,61.0,29.81,WSW,251,0.0,0.0,97,0.00,,,0.00,weatherlink.com 1.10,2013-05-12 08:27:00,
2013-05-12 04:42:00,61.5,61.0,29.81,WSW,251,0.0,1.0,97,0.00,,,0.00,weatherlink.com 1.10,2013-05-12 08:42:00,
2013-05-12 04:57:00,61.4,61.0,29.82,WSW,240,0.0,2.0,97,0.00,,,0.00,weatherlink.com 1.10,2013-05-12 08:57:00,
2013-05-12 05:12:00,61.2,60.0,29.82,WSW,240,1.0,1.0,97,0.00,,,0.00,weatherlink.com 1.10,2013-05-12 09:12:00,
2013-05-12 05:27:00,60.9,60.0,29.83,West,259,0.0,2.0,96,0.00,,,0.00,weatherlink.com 1.10,2013-05-12 09:27:00,
2013-05-12 05:42:00,60.4,59.0,29.84,SW,228,0.0,2.0,95,0.00,,,0.00,weatherlink.com 1.10,2013-05-12 09:42:00,
2013-05-12 05:57:00,60.1,59.0,29.84,SW,228,0.0,1.0,95,0.00,,,0.00,weatherlink.com 1.10,2013-05-12 09:57:00,
2013-05-12 06:12:00,59.6,58.0,29.85,SW,228,0.0,0.0,95,0.00,,,0.00,weatherlink.com 1.10,2013-05-12 10:12:00,
2013-05-12 06:27:00,58.9,58.0,29.86,SW,228,0.0,0.0,95,0.00,,,0.00,weatherlink.com 1.10,2013-05-12 10:27:00,
2013-05-12 06:42:00,58.2,57.0,29.86,SW,228,0.0,0.0,95,0.00,,,0.00,weatherlink.com 1.10,2013-05-12 10:42:00,
2013-05-12 06:57:00,57.7,57.0,29.87,SW,228,0.0,0.0,96,0.00,,,0.00,weatherlink.com 1.10,2013-05-12 10:57:00,
2013-05-12 07:12:00,58.0,57.0,29.88,SW,228,0.0,1.0,97,0.00,,,0.00,weatherlink.com 1.10,2013-05-12 11:12:00,
2013-05-12 07:27:00,58.1,57.0,29.88,SE,143,0.0,1.0,97,0.00,,,0.00,weatherlink.com 1.10,2013-05-12 11:27:00,
2013-05-12 07:42:00,58.3,58.0,29.89,SSE,167,0.0,1.0,97,0.00,,,0.00,weatherlink.com 1.10,2013-05-12 11:42:00,
2013-05-12 07:57:00,58.6,58.0,29.89,SW,217,0.0,3.0,96,0.00,,,0.00,weatherlink.com 1.10,2013-05-12 11:57:00,
2013-05-12 08:12:00,58.7,57.0,29.90,SW,217,2.0,2.0,94,0.00,,,0.00,weatherlink.com 1.10,2013-05-12 12:12:00,
2013-05-12 08:27:00,59.4,57.0,29.89,SW,236,0.0,3.0,92,0.00,,,0.00,weatherlink.com 1.10,2013-05-12 12:27:00,
2013-05-12 08:42:00,59.8,57.0,29.90,SW,227,0.0,2.0,90,0.00,,,0.00,weatherlink.com 1.10,2013-05-12 12:42:00,
2013-05-12 08:57:00,60.7,57.0,29.90,WSW,246,1.0,5.0,86,0.00,,,0.00,weatherlink.com 1.10,2013-05-12 12:57:00,
2013-05-12 09:12:00,61.2,55.0,29.90,West,278,1.0,3.0,81,0.00,,,0.00,weatherlink.com 1.10,2013-05-12 13:12:00,
2013-05-12 09:27:00,61.8,55.0,29.91,SW,236,0.0,3.0,79,0.00,,,0.00,weatherlink.com 1.10,2013-05-12 13:27:00,
2013-05-12 09:42:00,62.7,54.0,29.91,SW,234,2.0,4.0,73,0.00,,,0.00,weatherlink.com 1.10,2013-05-12 13:42:00,
2013-05-12 09:58:00,63.5,55.0,29.90,NW,313,2.0,4.0,75,0.00,,,0.00,weatherlink.com 1.10,2013-05-12 13:58:00,
2013-05-12 10:13:00,64.1,56.0,29.90,WNW,299,0.0,4.0,74,0.00,,,0.00,weatherlink.com 1.10,2013-05-12 14:13:00,
2013-05-12 10:28:00,65.0,53.0,29.90,WSW,253,2.0,5.0,66,0.00,,,0.00,weatherlink.com 1.10,2013-05-12 14:28:00,
2013-05-12 10:43:00,65.8,54.0,29.90,WNW,300,0.0,5.0,65,0.00,,,0.00,weatherlink.com 1.10,2013-05-12 14:43:00,
2013-05-12 10:58:00,66.4,53.0,29.90,SE,135,1.0,5.0,62,0.00,,,0.00,weatherlink.com 1.10,2013-05-12 14:58:00,
2013-05-12 11:13:00,67.0,52.0,29.90,WSW,238,2.0,10.0,60,0.00,,,0.00,weatherlink.com 1.10,2013-05-12 15:13:00,
2013-05-12 11:28:00,67.5,52.0,29.90,West,278,1.0,8.0,57,0.00,,,0.00,weatherlink.com 1.10,2013-05-12 15:28:00,
2013-05-12 11:43:00,68.2,51.0,29.90,WNW,286,1.0,5.0,55,0.00,,,0.00,weatherlink.com 1.10,2013-05-12 15:43:00,
2013-05-12 11:58:00,68.6,52.0,29.90,NE,36,2.0,5.0,55,0.00,,,0.00,weatherlink.com 1.10,2013-05-12 15:58:00,
2013-05-12 12:13:00,70.0,53.0,29.90,NE,48,2.0,7.0,55,0.00,,,0.00,weatherlink.com 1.10,2013-05-12 16:13:00,
2013-05-12 12:28:00,71.1,53.0,29.90,NW,317,2.0,6.0,53,0.00,,,0.00,weatherlink.com 1.10,2013-05-12 16:28:00,
2013-05-12 12:43:00,70.4,54.0,29.90,West,276,0.0,5.0,56,0.00,,,0.00,weatherlink.com 1.10,2013-05-12 16:43:00,
2013-05-12 12:58:00,71.5,55.0,29.90,ESE,105,3.0,7.0,56,0.00,,,0.00,weatherlink.com 1.10,2013-05-12 16:58:00,
2013-05-12 13:13:00,70.3,54.0,29.90,SW,236,1.0,5.0,57,0.00,,,0.00,weatherlink.com 1.10,2013-05-12 17:13:00,
2013-05-12 13:28:00,70.4,52.0,29.90,WNW,285,0.0,8.0,53,0.00,,,0.00,weatherlink.com 1.10,2013-05-12 17:28:00,
2013-05-12 13:43:00,71.7,51.0,29.89,ESE,114,4.0,6.0,48,0.00,,,0.00,weatherlink.com 1.10,2013-05-12 17:43:00,
2013-05-12 13:58:00,71.9,51.0,29.89,WNW,294,4.0,7.0,48,0.00,,,0.00,weatherlink.com 1.10,2013-05-12 17:58:00,
2013-05-12 14:13:00,72.6,49.0,29.89,WSW,248,2.0,8.0,43,0.00,,,0.00,weatherlink.com 1.10,2013-05-12 18:13:00,
2013-05-12 14:28:00,72.9,46.0,29.90,WNW,283,2.0,10.0,39,0.00,,,0.00,weatherlink.com 1.10,2013-05-12 18:28:00,
2013-05-12 14:43:00,72.6,43.0,29.90,WNW,284,4.0,8.0,35,0.00,,,0.00,weatherlink.com 1.10,2013-05-12 18:43:00,
2013-05-12 14:58:00,73.1,43.0,29.89,WNW,293,5.0,7.0,34,0.00,,,0.00,weatherlink.com 1.10,2013-05-12 18:58:00,
2013-05-12 15:13:00,73.7,46.0,29.88,West,281,2.0,7.0,38,0.00,,,0.00,weatherlink.com 1.10,2013-05-12 19:13:00,
2013-05-12 15:28:00,74.1,37.0,29.88,ENE,60,3.0,7.0,26,0.00,,,0.00,weatherlink.com 1.10,2013-05-12 19:28:00,
2013-05-12 15:43:00,74.0,37.0,29.88,West,269,4.0,12.0,26,0.00,,,0.00,weatherlink.com 1.10,2013-05-12 19:43:00,
2013-05-12 15:58:00,74.2,40.0,29.87,ESE,116,5.0,9.0,29,0.00,,,0.00,weatherlink.com 1.10,2013-05-12 19:58:00,
2013-05-12 16:13:00,74.3,37.0,29.87,West,278,1.0,9.0,26,0.00,,,0.00,weatherlink.com 1.10,2013-05-12 20:13:00,
2013-05-12 16:28:00,75.2,42.0,29.88,NW,313,3.0,7.0,30,0.00,,,0.00,weatherlink.com 1.10,2013-05-12 20:28:00,
2013-05-12 16:43:00,74.6,38.0,29.88,West,279,2.0,7.0,27,0.00,,,0.00,weatherlink.com 1.10,2013-05-12 20:43:00,
2013-05-12 16:58:00,74.2,36.0,29.88,NW,325,2.0,8.0,25,0.00,,,0.00,weatherlink.com 1.10,2013-05-12 20:58:00,
2013-05-12 17:13:00,74.8,37.0,29.87,NNE,17,1.0,8.0,25,0.00,,,0.00,weatherlink.com 1.10,2013-05-12 21:13:00,
2013-05-12 17:28:00,74.6,36.0,29.88,SE,145,1.0,9.0,25,0.00,,,0.00,weatherlink.com 1.10,2013-05-12 21:28:00,
2013-05-12 17:43:00,73.8,39.0,29.88,West,271,1.0,8.0,28,0.00,,,0.00,weatherlink.com 1.10,2013-05-12 21:43:00,
2013-05-12 17:58:00,74.4,39.0,29.89,South,170,2.0,7.0,28,0.00,,,0.00,weatherlink.com 1.10,2013-05-12 21:58:00,
2013-05-12 18:13:00,72.8,37.0,29.89,ENE,70,3.0,6.0,27,0.00,,,0.00,weatherlink.com 1.10,2013-05-12 22:13:00,
2013-05-12 18:28:00,71.5,46.0,29.89,WSW,243,3.0,4.0,40,0.00,,,0.00,weatherlink.com 1.10,2013-05-12 22:28:00,
2013-05-12 18:43:00,70.5,47.0,29.90,West,264,0.0,6.0,43,0.00,,,0.00,weatherlink.com 1.10,2013-05-12 22:43:00,
2013-05-12 18:58:00,70.4,47.0,29.90,WSW,242,3.0,3.0,43,0.00,,,0.00,weatherlink.com 1.10,2013-05-12 22:58:00,
2013-05-12 19:13:00,69.7,47.0,29.91,East,101,1.0,6.0,44,0.00,,,0.00,weatherlink.com 1.10,2013-05-12 23:13:00,
2013-05-12 19:28:00,68.9,45.0,29.92,West,274,1.0,4.0,43,0.00,,,0.00,weatherlink.com 1.10,2013-05-12 23:28:00,
2013-05-12 19:44:00,68.0,45.0,29.92,WSW,250,1.0,4.0,44,0.00,,,0.00,weatherlink.com 1.10,2013-05-12 23:44:00,
2013-05-12 19:59:00,67.0,44.0,29.93,SSW,207,1.0,5.0,43,0.00,,,0.00,weatherlink.com 1.10,2013-05-12 23:59:00,
2013-05-12 20:14:00,66.4,42.0,29.93,SSE,156,0.0,4.0,42,0.00,,,0.00,weatherlink.com 1.10,2013-05-13 00:14:00,
2013-05-12 20:29:00,65.4,42.0,29.94,SW,233,3.0,7.0,43,0.00,,,0.00,weatherlink.com 1.10,2013-05-13 00:29:00,
2013-05-12 20:44:00,64.7,41.0,29.95,SW,233,1.0,4.0,42,0.00,,,0.00,weatherlink.com 1.10,2013-05-13 00:44:00,
2013-05-12 20:59:00,63.8,41.0,29.95,WSW,256,0.0,3.0,44,0.00,,,0.00,weatherlink.com 1.10,2013-05-13 00:59:00,
2013-05-12 21:14:00,62.9,41.0,29.96,WSW,244,0.0,4.0,45,0.00,,,0.00,weatherlink.com 1.10,2013-05-13 01:14:00,
2013-05-12 21:29:00,62.4,41.0,29.97,SW,222,0.0,2.0,46,0.00,,,0.00,weatherlink.com 1.10,2013-05-13 01:29:00,
2013-05-12 21:44:00,62.1,40.0,29.98,WSW,253,0.0,4.0,44,0.00,,,0.00,weatherlink.com 1.10,2013-05-13 01:44:00,
2013-05-12 21:59:00,61.8,39.0,29.98,SW,236,0.0,4.0,44,0.00,,,0.00,weatherlink.com 1.10,2013-05-13 01:59:00,
2013-05-12 22:14:00,60.8,40.0,29.99,SW,224,1.0,2.0,46,0.00,,,0.00,weatherlink.com 1.10,2013-05-13 02:14:00,
2013-05-12 22:29:00,59.4,39.0,29.99,SW,229,1.0,3.0,47,0.00,,,0.00,weatherlink.com 1.10,2013-05-13 02:29:00,
2013-05-12 22:44:00,59.2,40.0,30.00,SW,224,1.0,4.0,50,0.00,,,0.00,weatherlink.com 1.10,2013-05-13 02:44:00,
2013-05-12 22:59:00,58.8,39.0,30.00,SW,217,1.0,3.0,49,0.00,,,0.00,weatherlink.com 1.10,2013-05-13 02:59:00,
2013-05-12 23:14:00,58.1,40.0,30.00,SW,217,0.0,2.0,51,0.00,,,0.00,weatherlink.com 1.10,2013-05-13 03:14:00,
2013-05-12 23:29:00,56.7,40.0,30.01,SW,217,0.0,0.0,55,0.00,,,0.00,weatherlink.com 1.10,2013-05-13 03:29:00,
2013-05-12 23:44:00,54.7,41.0,30.01,SW,217,0.0,0.0,60,0.00,,,0.00,weatherlink.com 1.10,2013-05-13 03:44:00,
2013-05-12 23:59:00,53.2,41.0,30.02,SW,217,0.0,0.0,64,0.00,,,0.00,weatherlink.com 1.10,2013-05-13 03:59:00,